Time;durP1;ratioP1;P1;durP2;ratioP2;P2;SDS_P1;SDS_P2;PMS_P1;PMS_P2;Temp;Humidity;BMP_temperature;BMP_pressure;BME280_temperature;BME280_humidity;BME280_pressure;Samples;Min_cycle;Max_cycle;Signal;HPM_P1;HPM_P2
2022/01/14 00:01:57;;;;;;;26.65;9.23;;;;;;;6.67;100.00;103363.97;10374334;28;20077;-66
2022/01/14 00:07:19;;;;;;;22.20;8.55;;;;;;;6.58;100.00;103366.63;10380564;28;20050;-65
2022/01/14 00:12:50;;;;;;;17.02;7.65;;;;;;;6.66;99.62;103366.56;10372912;28;20061;-65
2022/01/14 00:18:11;;;;;;;20.67;8.88;;;;;;;6.65;99.84;103351.91;10380643;28;20072;-65
2022/01/14 00:23:38;;;;;;;18.27;8.38;;;;;;;6.60;99.72;103343.28;10390921;28;20038;-65
2022/01/14 00:34:39;;;;;;;24.70;8.85;;;;;;;6.67;99.35;103337.19;10405467;28;20092;-65
2022/01/14 00:40:01;;;;;;;30.65;8.95;;;;;;;6.63;99.96;103340.69;10392664;28;20061;-65
2022/01/14 00:45:23;;;;;;;21.42;8.70;;;;;;;6.64;99.91;103340.66;10372920;28;20053;-65
2022/01/14 00:50:44;;;;;;;22.98;9.35;;;;;;;6.64;99.51;103347.59;10372744;28;20061;-65
2022/01/14 00:56:19;;;;;;;19.60;9.10;;;;;;;6.64;99.12;103326.84;10372605;28;20815;-65
2022/01/14 01:01:52;;;;;;;25.90;8.85;;;;;;;6.62;99.41;103333.78;10373072;28;20049;-65
2022/01/14 01:07:14;;;;;;;20.30;8.63;;;;;;;6.67;99.29;103322.50;10388359;28;20132;-65
2022/01/14 01:13:03;;;;;;;25.52;8.40;;;;;;;6.67;98.88;103316.47;10406873;28;20050;-65
2022/01/14 01:18:22;;;;;;;24.15;9.20;;;;;;;6.64;98.97;103316.50;10407834;28;20054;-65
2022/01/14 01:23:44;;;;;;;23.50;8.13;;;;;;;6.64;98.11;103316.50;10424528;28;20073;-65
2022/01/14 01:34:33;;;;;;;18.73;8.30;;;;;;;6.64;98.07;103321.66;10389079;28;20061;-66
2022/01/14 01:39:55;;;;;;;21.08;8.20;;;;;;;6.65;98.16;103313.03;10373884;28;20061;-65
2022/01/14 01:45:23;;;;;;;20.63;7.57;;;;;;;6.65;97.79;103308.69;10388002;28;20045;-65
2022/01/14 01:50:45;;;;;;;18.10;8.40;;;;;;;6.66;97.70;103315.59;10415945;28;20049;-66
2022/01/14 01:56:07;;;;;;;22.23;8.23;;;;;;;6.69;97.70;103300.88;10375117;28;20478;-65
2022/01/14 02:01:29;;;;;;;19.58;8.70;;;;;;;6.66;97.89;103299.19;10421789;28;20056;-65
2022/01/14 02:06:52;;;;;;;22.15;8.75;;;;;;;6.67;98.01;103295.75;10405447;28;20045;-65
2022/01/14 02:12:14;;;;;;;23.85;9.32;;;;;;;6.68;98.17;103291.41;10381216;28;20129;-65
2022/01/14 02:23:18;;;;;;;24.10;8.90;;;;;;;6.67;98.22;103290.56;10397049;28;20060;-65
2022/01/14 02:28:41;;;;;;;22.52;8.65;;;;;;;6.70;98.19;103284.44;10408963;28;20037;-65
2022/01/14 02:34:02;;;;;;;24.55;9.00;;;;;;;6.71;98.23;103282.72;10416089;28;20049;-65
2022/01/14 02:39:24;;;;;;;25.95;9.43;;;;;;;6.71;98.50;103283.56;10387023;28;20050;-65
2022/01/14 02:44:48;;;;;;;20.63;9.18;;;;;;;6.76;98.20;103268.84;10368491;28;20042;-65
2022/01/14 02:50:16;;;;;;;21.00;9.35;;;;;;;6.64;99.02;103255.13;10368888;28;20049;-65
2022/01/14 02:55:43;;;;;;;26.02;10.10;;;;;;;6.78;98.47;103259.34;10386329;28;20064;-65
2022/01/14 03:01:10;;;;;;;30.55;11.48;;;;;;;6.77;98.23;103262.78;10408835;28;20367;-65
2022/01/14 03:06:32;;;;;;;25.20;10.32;;;;;;;6.81;98.72;103261.03;10398651;28;20053;-65
2022/01/14 03:11:55;;;;;;;29.92;11.00;;;;;;;6.82;98.57;103249.78;10400105;28;20058;-65
2022/01/14 03:17:17;;;;;;;28.45;12.15;;;;;;;6.70;98.60;103250.75;10402717;28;20037;-65
2022/01/14 03:22:42;;;;;;;22.83;10.73;;;;;;;6.75;99.26;103243.81;10405530;28;20072;-65
2022/01/14 03:28:03;;;;;;;25.23;10.37;;;;;;;6.70;99.44;103257.69;10407242;28;20045;-66
2022/01/14 03:33:25;;;;;;;23.25;10.43;;;;;;;6.70;99.81;103240.38;10385260;28;20390;-65
2022/01/14 03:38:47;;;;;;;21.77;9.38;;;;;;;6.80;99.04;103231.66;10402854;28;20468;-65
2022/01/14 03:44:09;;;;;;;22.13;9.60;;;;;;;6.75;99.81;103233.44;10374894;28;20065;-65
2022/01/14 03:49:31;;;;;;;24.98;9.85;;;;;;;6.76;99.58;103219.59;10372338;28;20049;-65
2022/01/14 03:54:53;;;;;;;21.15;9.23;;;;;;;6.74;99.87;103223.09;10400317;28;20045;-65
2022/01/14 04:00:35;;;;;;;30.23;10.30;;;;;;;6.72;100.00;103207.53;10393853;28;20486;-65
2022/01/14 04:05:57;;;;;;;23.73;9.57;;;;;;;6.74;100.00;103198.03;10410299;28;20053;-65
2022/01/14 04:11:19;;;;;;;25.65;10.70;;;;;;;6.69;100.00;103197.19;10396525;28;20049;-65
2022/01/14 04:16:41;;;;;;;27.27;10.32;;;;;;;6.71;100.00;103163.50;10373134;28;20038;-65
2022/01/14 04:22:03;;;;;;;20.55;10.05;;;;;;;6.74;100.00;103147.94;10386853;28;20698;-65
2022/01/14 04:27:24;;;;;;;28.10;10.90;;;;;;;6.71;100.00;103154.00;10382474;28;20045;-65
2022/01/14 04:32:46;;;;;;;26.85;10.32;;;;;;;6.70;100.00;103141.91;10373261;28;20046;-66
2022/01/14 04:38:08;;;;;;;25.50;10.25;;;;;;;6.54;100.00;103129.16;10381445;28;20050;-65
2022/01/14 04:43:30;;;;;;;28.95;10.15;;;;;;;6.55;100.00;103136.06;10391007;28;20056;-64
2022/01/14 04:48:52;;;;;;;29.83;10.90;;;;;;;6.56;100.00;103111.00;10378968;28;20458;-65
2022/01/14 04:54:13;;;;;;;29.15;11.15;;;;;;;6.52;100.00;103112.78;10372606;28;20482;-65
2022/01/14 04:59:35;;;;;;;29.92;10.43;;;;;;;6.54;100.00;103112.78;10372040;28;20050;-65
2022/01/14 05:04:59;;;;;;;29.25;11.18;;;;;;;6.54;100.00;103112.78;10390413;28;20070;-65
2022/01/14 05:15:53;;;;;;;24.42;10.18;;;;;;;6.57;100.00;103138.63;10392377;28;20428;-65
2022/01/14 05:21:15;;;;;;;27.08;11.48;;;;;;;6.56;100.00;103140.38;10403606;28;20411;-65
2022/01/14 05:26:36;;;;;;;28.20;11.13;;;;;;;6.55;100.00;103145.56;10393041;28;20061;-65
2022/01/14 05:32:05;;;;;;;27.17;12.68;;;;;;;6.52;100.00;103145.59;10381424;28;20054;-64
2022/01/14 05:37:27;;;;;;;30.60;12.13;;;;;;;6.57;100.00;103154.16;10389103;28;20054;-65
2022/01/14 05:42:49;;;;;;;27.33;11.82;;;;;;;6.55;99.76;103156.78;10384079;28;20387;-65
2022/01/14 05:48:10;;;;;;;29.30;12.43;;;;;;;6.62;99.19;103152.41;10370809;28;20061;-65
2022/01/14 05:53:32;;;;;;;27.42;12.98;;;;;;;6.65;99.22;103154.97;10398639;28;20056;-65
2022/01/14 05:58:56;;;;;;;26.55;11.75;;;;;;;6.62;98.86;103154.97;10404933;28;20050;-65
2022/01/14 06:04:18;;;;;;;24.70;12.32;;;;;;;6.70;98.73;103151.44;10394187;28;20089;-65
2022/01/14 06:09:39;;;;;;;27.55;12.35;;;;;;;6.67;98.99;103140.25;10380286;28;20053;-65
2022/01/14 06:15:01;;;;;;;29.52;11.70;;;;;;;6.75;98.43;103139.28;10370032;28;20046;-65
2022/01/14 06:20:23;;;;;;;30.25;12.13;;;;;;;6.77;98.74;103140.97;10384643;28;20077;-64
2022/01/14 06:25:45;;;;;;;32.50;12.48;;;;;;;6.79;98.69;103141.81;10380039;28;20397;-64
2022/01/14 06:31:06;;;;;;;26.70;11.90;;;;;;;6.79;99.09;103141.81;10386569;28;20501;-64
2022/01/14 06:36:28;;;;;;;30.27;12.05;;;;;;;6.86;98.57;103147.78;10372727;28;20111;-65
2022/01/14 06:41:50;;;;;;;30.90;12.07;;;;;;;6.84;99.27;103150.38;10376926;28;20056;-65
2022/01/14 06:47:11;;;;;;;30.92;12.68;;;;;;;6.83;99.13;103159.06;10374914;28;20475;-65
2022/01/14 06:52:33;;;;;;;29.95;12.27;;;;;;;6.81;99.66;103160.81;10368890;28;20054;-65
2022/01/14 06:57:55;;;;;;;29.35;12.10;;;;;;;6.85;99.19;103152.09;10369003;28;20050;-64
2022/01/14 07:03:16;;;;;;;33.97;12.57;;;;;;;6.89;99.26;103148.59;10402157;28;20056;-64
2022/01/14 07:08:38;;;;;;;26.17;12.15;;;;;;;6.94;98.88;103167.56;10369067;28;20061;-64
2022/01/14 07:14:00;;;;;;;32.47;12.20;;;;;;;6.89;99.47;103166.75;10379209;28;20062;-65
2022/01/14 07:19:22;;;;;;;29.17;12.90;;;;;;;6.89;99.90;103168.50;10381325;28;20045;-65
2022/01/14 07:24:44;;;;;;;27.40;12.15;;;;;;;6.98;99.60;103182.22;10377757;28;20045;-65
2022/01/14 07:30:07;;;;;;;24.40;12.48;;;;;;;6.93;99.12;103168.44;10409917;28;20061;-65
2022/01/14 07:35:29;;;;;;;26.02;11.68;;;;;;;6.94;99.89;103183.13;10390331;28;20081;-66
2022/01/14 07:40:51;;;;;;;33.80;11.70;;;;;;;7.00;99.50;103185.59;10376082;28;20046;-66
2022/01/14 07:46:13;;;;;;;28.95;12.77;;;;;;;6.96;99.89;103186.53;10391428;28;20050;-65
2022/01/14 07:51:34;;;;;;;33.85;12.13;;;;;;;6.99;100.00;103190.81;10402165;28;20664;-65
2022/01/14 07:56:58;;;;;;;24.98;11.65;;;;;;;7.01;99.50;103183.88;10402141;28;20052;-65
2022/01/14 08:02:21;;;;;;;25.38;10.85;;;;;;;7.00;100.00;103188.19;10395349;28;20049;-65
2022/01/14 08:07:47;;;;;;;26.45;11.45;;;;;;;7.06;99.82;103175.19;10403285;28;20041;-65
2022/01/14 08:13:09;;;;;;;20.63;10.85;;;;;;;7.05;99.94;103186.41;10400199;28;20061;-66
2022/01/14 08:18:30;;;;;;;25.83;10.50;;;;;;;7.12;99.81;103198.44;10412397;28;20073;-65
2022/01/14 08:23:52;;;;;;;25.02;9.50;;;;;;;7.10;99.76;103199.31;10387385;28;20054;-66
2022/01/14 08:29:14;;;;;;;30.08;10.60;;;;;;;7.10;99.59;103195.00;10408742;28;20072;-66
2022/01/14 08:34:35;;;;;;;26.90;10.15;;;;;;;7.20;100.00;103199.19;10415304;28;20050;-66
2022/01/14 08:39:57;;;;;;;20.48;9.80;;;;;;;7.14;99.95;103196.66;10418871;28;20085;-66
2022/01/14 08:45:21;;;;;;;24.70;10.07;;;;;;;7.19;100.00;103205.25;10407979;28;20137;-66
2022/01/14 08:50:43;;;;;;;26.38;9.95;;;;;;;7.17;100.00;103225.16;10396115;28;20195;-66
2022/01/14 08:56:05;;;;;;;28.85;9.63;;;;;;;7.16;100.00;103215.66;10381596;28;20060;-66
2022/01/14 09:01:27;;;;;;;21.88;9.13;;;;;;;7.18;100.00;103207.88;10390621;28;20041;-66
2022/01/14 09:06:49;;;;;;;26.38;8.50;;;;;;;7.18;100.00;103211.31;10391902;28;20054;-66
2022/01/14 09:12:16;;;;;;;33.60;9.05;;;;;;;7.20;100.00;103211.31;10393486;28;20060;-67
2022/01/14 09:17:38;;;;;;;31.88;8.65;;;;;;;7.22;100.00;103223.38;10391853;28;20068;-66
2022/01/14 09:23:00;;;;;;;24.83;9.20;;;;;;;7.25;100.00;103223.34;10389808;28;20171;-65
2022/01/14 09:28:22;;;;;;;31.70;9.27;;;;;;;7.29;100.00;103243.16;10391432;28;20068;-66
2022/01/14 09:33:43;;;;;;;20.80;8.43;;;;;;;7.26;100.00;103247.53;10386087;28;20049;-67
2022/01/14 09:39:05;;;;;;;24.90;9.25;;;;;;;7.37;100.00;103249.13;10389405;28;20046;-66
2022/01/14 09:44:27;;;;;;;24.90;9.05;;;;;;;7.37;100.00;103249.13;10357122;28;20064;-67
2022/01/14 09:49:49;;;;;;;27.88;8.57;;;;;;;7.39;100.00;103260.34;10397438;28;20061;-67
2022/01/14 09:55:12;;;;;;;23.65;7.93;;;;;;;7.38;100.00;103262.94;10407272;28;20045;-67
2022/01/14 10:00:35;;;;;;;31.58;8.65;;;;;;;7.36;100.00;103255.19;10399846;28;20059;-66
2022/01/14 10:05:57;;;;;;;27.15;7.88;;;;;;;7.49;100.00;103248.97;10400762;28;20053;-66
2022/01/14 10:11:20;;;;;;;28.90;8.93;;;;;;;7.38;100.00;103248.25;10400437;28;20057;-65
2022/01/14 10:16:43;;;;;;;19.55;8.88;;;;;;;7.39;100.00;103259.47;10406564;28;20426;-65
2022/01/14 10:22:28;;;;;;;22.90;8.77;;;;;;;7.46;100.00;103267.16;10388632;28;20073;-65
2022/01/14 10:27:53;;;;;;;25.60;8.80;;;;;;;7.47;100.00;103261.09;10414282;28;20052;-65
2022/01/14 10:33:20;;;;;;;18.67;8.35;;;;;;;7.48;100.00;103259.38;10368307;28;20058;-65
2022/01/14 10:38:46;;;;;;;26.10;8.68;;;;;;;7.59;100.00;103257.50;10410636;28;20037;-66
2022/01/14 10:44:34;;;;;;;28.30;8.40;;;;;;;7.62;100.00;103262.66;10397845;28;20112;-66
2022/01/14 10:49:58;;;;;;;27.48;7.90;;;;;;;7.65;100.00;103271.25;10422588;28;20055;-66
2022/01/14 10:55:42;;;;;;;25.60;7.15;;;;;;;7.57;100.00;103259.25;10369226;28;20136;-65
2022/01/14 11:01:11;;;;;;;28.20;7.60;;;;;;;7.61;100.00;103264.38;10381426;28;20046;-65
2022/01/14 11:06:39;;;;;;;24.73;6.97;;;;;;;7.68;100.00;103253.03;10420211;28;20053;-65
2022/01/14 11:12:03;;;;;;;31.45;7.25;;;;;;;7.67;100.00;103251.31;10397375;28;20506;-65
2022/01/14 11:17:24;;;;;;;22.25;7.72;;;;;;;7.73;100.00;103257.28;10408748;28;20504;-64
2022/01/14 11:23:15;;;;;;;23.55;7.57;;;;;;;7.72;100.00;103259.88;10404065;28;20064;-64
2022/01/14 11:28:45;;;;;;;23.60;6.45;;;;;;;7.77;100.00;103268.47;10409084;28;20104;-66
2022/01/14 11:34:08;;;;;;;22.00;6.53;;;;;;;7.74;100.00;103253.81;10395962;28;20064;-66
2022/01/14 11:39:36;;;;;;;22.52;7.03;;;;;;;7.73;100.00;103266.78;10406626;28;20623;-63
2022/01/14 11:45:01;;;;;;;23.70;6.90;;;;;;;7.68;100.00;103273.81;10414220;28;20045;-65
2022/01/14 11:50:31;;;;;;;25.95;7.45;;;;;;;7.60;100.00;103272.19;10415042;28;20409;-64
2022/01/14 11:55:59;;;;;;;24.50;7.45;;;;;;;7.70;100.00;103265.09;10373839;28;20078;-64
2022/01/14 12:01:32;;;;;;;25.35;6.25;;;;;;;7.74;100.00;103259.00;10390079;28;20052;-63
2022/01/14 12:06:59;;;;;;;18.77;6.20;;;;;;;7.72;100.00;103265.94;10401350;28;20072;-63
2022/01/14 12:12:30;;;;;;;28.40;7.00;;;;;;;7.66;100.00;103265.16;10403260;28;20140;-64
2022/01/14 12:17:51;;;;;;;22.30;6.30;;;;;;;7.68;100.00;103255.63;10385843;28;20085;-64
2022/01/14 12:23:18;;;;;;;28.65;6.97;;;;;;;7.63;100.00;103249.63;10393426;28;20149;-63
2022/01/14 12:28:39;;;;;;;23.92;6.10;;;;;;;7.55;100.00;103241.09;10397917;28;21576;-64
2022/01/14 12:34:07;;;;;;;21.58;6.28;;;;;;;7.63;100.00;103249.63;10401668;28;20418;-64
2022/01/14 12:39:30;;;;;;;19.45;6.10;;;;;;;7.70;100.00;103236.53;10395119;28;20411;-63
2022/01/14 12:44:53;;;;;;;17.75;5.38;;;;;;;7.67;100.00;103235.75;10390872;28;20053;-64
2022/01/14 12:50:15;;;;;;;23.60;6.00;;;;;;;7.66;100.00;103244.41;10388293;28;20103;-63
2022/01/14 12:55:36;;;;;;;20.55;5.60;;;;;;;7.73;100.00;103225.25;10400551;28;20042;-63
2022/01/14 13:01:09;;;;;;;22.75;5.65;;;;;;;7.79;100.00;103212.19;10387288;28;20514;-64
2022/01/14 13:06:41;;;;;;;25.95;5.65;;;;;;;7.71;100.00;103222.69;10400940;28;20076;-64
2022/01/14 13:12:08;;;;;;;26.80;5.20;;;;;;;7.75;100.00;103226.09;10398974;28;20052;-65
2022/01/14 13:17:33;;;;;;;23.80;5.00;;;;;;;7.76;100.00;103231.28;10390429;28;20045;-70
2022/01/14 13:22:55;;;;;;;24.40;4.90;;;;;;;7.71;100.00;103247.81;10411196;28;20061;-66
2022/01/14 13:28:19;;;;;;;24.63;5.20;;;;;;;7.72;100.00;103228.72;10395969;28;20786;-66
2022/01/14 13:33:40;;;;;;;42.05;6.18;;;;;;;7.77;100.00;103237.31;10391099;28;20409;-65
2022/01/14 13:39:11;;;;;;;19.40;5.53;;;;;;;7.77;100.00;103232.13;10397771;28;20049;-65
2022/01/14 13:44:34;;;;;;;20.85;5.28;;;;;;;7.74;100.00;103233.03;10380321;28;20054;-65
2022/01/14 13:50:19;;;;;;;23.80;5.03;;;;;;;7.80;100.00;103232.09;10375994;28;20050;-65
2022/01/14 13:55:47;;;;;;;25.10;5.80;;;;;;;7.78;100.00;103229.53;10371147;28;20049;-65
2022/01/14 14:01:09;;;;;;;27.55;5.95;;;;;;;7.75;100.00;103233.88;10410788;28;20045;-65
2022/01/14 14:06:38;;;;;;;29.58;6.20;;;;;;;7.75;100.00;103228.69;10395718;28;20041;-65
2022/01/14 14:18:05;;;;;;;24.33;6.38;;;;;;;7.83;100.00;103229.44;10396369;28;20038;-65
2022/01/14 14:23:29;;;;;;;23.98;5.75;;;;;;;7.83;100.00;103221.66;10389432;28;20049;-66
2022/01/14 14:28:50;;;;;;;19.25;5.47;;;;;;;7.83;100.00;103219.91;10386309;28;20053;-65
2022/01/14 14:34:12;;;;;;;19.70;5.97;;;;;;;7.77;100.00;103225.22;10401364;28;20042;-65
2022/01/14 14:39:34;;;;;;;19.38;5.70;;;;;;;7.83;100.00;103237.25;10402810;28;20056;-66
2022/01/14 14:44:55;;;;;;;19.02;5.20;;;;;;;7.81;100.00;103224.25;10378661;28;20055;-65
2022/01/14 14:50:22;;;;;;;14.73;4.70;;;;;;;7.89;100.00;103221.53;10373584;28;20057;-64
2022/01/14 14:55:43;;;;;;;14.32;4.68;;;;;;;7.85;100.00;103219.91;10367812;28;20053;-64
2022/01/14 15:01:07;;;;;;;17.30;4.97;;;;;;;7.85;100.00;103217.31;10399548;28;20068;-63
2022/01/14 15:06:29;;;;;;;12.48;5.53;;;;;;;7.78;100.00;103203.56;10396544;28;20092;-63
2022/01/14 15:11:51;;;;;;;17.70;6.25;;;;;;;7.81;100.00;103210.44;10387228;28;20064;-64
2022/01/14 15:22:47;;;;;;;17.25;5.57;;;;;;;7.83;100.00;103212.13;10394466;28;20049;-63
2022/01/14 15:28:09;;;;;;;17.00;5.70;;;;;;;7.92;100.00;103211.13;10383389;28;20056;-63
2022/01/14 15:33:31;;;;;;;11.32;4.95;;;;;;;7.91;100.00;103199.00;10385851;28;20093;-63
2022/01/14 15:38:53;;;;;;;17.98;5.93;;;;;;;7.86;100.00;103206.00;10389514;28;20037;-63
2022/01/14 15:44:15;;;;;;;17.67;5.70;;;;;;;7.79;100.00;103196.63;10394956;28;20045;-63
2022/01/14 15:49:38;;;;;;;18.90;6.18;;;;;;;7.86;100.00;103201.69;10402034;28;20057;-63
2022/01/14 15:55:01;;;;;;;18.10;6.68;;;;;;;7.82;100.00;103193.97;10404170;28;20183;-63
2022/01/14 16:00:22;;;;;;;19.52;5.78;;;;;;;7.85;100.00;103186.16;10414548;28;20058;-63
2022/01/14 16:05:45;;;;;;;13.43;6.60;;;;;;;7.88;100.00;103188.66;10400910;28;20052;-63
2022/01/14 16:11:08;;;;;;;16.08;6.53;;;;;;;7.93;100.00;103197.25;10391353;28;20052;-65
2022/01/14 16:16:30;;;;;;;13.20;6.65;;;;;;;7.84;100.00;103192.22;10415408;28;20046;-65
2022/01/14 16:21:52;;;;;;;19.35;6.63;;;;;;;7.91;100.00;103204.22;10402944;28;20100;-64
2022/01/14 16:27:14;;;;;;;13.27;5.95;;;;;;;7.91;100.00;103196.41;10409941;28;20049;-66
2022/01/14 16:32:36;;;;;;;15.07;6.20;;;;;;;7.95;100.00;103190.31;10414783;28;20498;-65
2022/01/14 16:37:59;;;;;;;12.43;6.43;;;;;;;7.93;100.00;103197.25;10414565;28;20494;-65
2022/01/14 16:43:23;;;;;;;13.63;6.25;;;;;;;8.02;100.00;103208.38;10399603;28;20277;-66
2022/01/14 16:48:45;;;;;;;14.18;6.55;;;;;;;7.99;100.00;103202.38;10395283;28;20132;-66
2022/01/14 16:54:06;;;;;;;17.52;6.93;;;;;;;7.98;100.00;103190.25;10406607;28;20091;-66
2022/01/14 16:59:28;;;;;;;11.77;5.90;;;;;;;7.98;100.00;103196.28;10389086;28;20103;-66
2022/01/14 17:04:50;;;;;;;16.77;7.20;;;;;;;8.01;100.00;103187.59;10398744;28;20064;-65
2022/01/14 17:10:13;;;;;;;12.32;6.53;;;;;;;8.01;100.00;103195.38;10401893;28;20047;-65
2022/01/14 17:15:34;;;;;;;14.15;6.95;;;;;;;7.95;100.00;103206.72;10388147;28;20046;-65
2022/01/14 17:20:56;;;;;;;16.45;6.63;;;;;;;7.92;100.00;103205.94;10402041;28;20146;-66
2022/01/14 17:26:18;;;;;;;12.02;6.15;;;;;;;7.95;100.00;103198.09;10375546;28;20048;-66
2022/01/14 17:31:40;;;;;;;13.27;5.53;;;;;;;7.92;100.00;103195.53;10371223;28;20052;-65
2022/01/14 17:37:02;;;;;;;12.95;5.47;;;;;;;8.05;100.00;103197.94;10371099;28;20414;-65
2022/01/14 17:42:26;;;;;;;13.38;5.10;;;;;;;8.01;100.00;103210.97;10395135;28;20049;-66
2022/01/14 17:47:47;;;;;;;13.20;6.00;;;;;;;7.95;100.00;103200.69;10397420;28;20525;-65
2022/01/14 17:53:09;;;;;;;11.60;5.13;;;;;;;7.97;100.00;103198.94;10399734;28;20061;-65
2022/01/14 17:58:31;;;;;;;10.20;5.32;;;;;;;8.02;100.00;103203.16;10380405;28;20057;-66
2022/01/14 18:03:53;;;;;;;16.65;6.20;;;;;;;7.97;100.00;103198.94;10395570;28;20049;-67
2022/01/14 18:09:16;;;;;;;16.65;6.60;;;;;;;8.01;100.00;103191.06;10385995;28;20053;-67
2022/01/14 18:14:38;;;;;;;11.40;5.68;;;;;;;8.05;100.00;103197.06;10370587;28;20701;-65
2022/01/14 18:20:00;;;;;;;16.83;9.07;;;;;;;7.88;100.00;103204.25;10382650;28;20051;-65
2022/01/14 18:25:22;;;;;;;13.90;5.95;;;;;;;7.88;100.00;103212.03;10402090;28;20568;-66
2022/01/14 18:30:43;;;;;;;7.65;4.80;;;;;;;7.86;100.00;103200.81;10391838;28;20458;-65
2022/01/14 18:36:08;;;;;;;9.77;3.85;;;;;;;7.80;100.00;103211.31;10384814;28;20049;-65
2022/01/14 18:41:30;;;;;;;6.63;3.00;;;;;;;7.92;100.00;103205.94;10397850;28;20049;-66
2022/01/14 18:46:52;;;;;;;6.72;2.90;;;;;;;7.86;100.00;103195.63;10397544;28;20049;-65
2022/01/14 18:52:13;;;;;;;11.32;3.50;;;;;;;7.85;100.00;103219.91;10393537;28;20049;-66
2022/01/14 18:57:35;;;;;;;6.57;3.63;;;;;;;7.85;100.00;103215.56;10383784;28;20051;-65
2022/01/14 19:02:58;;;;;;;8.20;3.03;;;;;;;7.86;100.00;103209.47;10380019;28;20056;-66
2022/01/14 19:08:19;;;;;;;7.68;4.20;;;;;;;7.84;100.00;103224.22;10402600;28;20514;-66
2022/01/14 19:13:51;;;;;;;10.48;3.70;;;;;;;7.84;100.00;103203.44;10396306;28;20057;-66
2022/01/14 19:19:17;;;;;;;9.27;3.88;;;;;;;7.91;100.00;103217.19;10406437;28;20038;-65
2022/01/14 19:24:42;;;;;;;7.57;3.95;;;;;;;7.84;100.00;103207.81;10377002;28;20057;-66
2022/01/14 19:30:05;;;;;;;12.55;6.30;;;;;;;7.84;100.00;103215.59;10386110;28;20065;-66
2022/01/14 19:35:28;;;;;;;9.27;3.83;;;;;;;7.79;100.00;103205.25;10376223;28;20068;-65
2022/01/14 19:40:50;;;;;;;13.05;4.78;;;;;;;7.78;100.00;103215.66;10375635;28;20061;-66
2022/01/14 19:46:12;;;;;;;16.15;7.03;;;;;;;7.68;100.00;103232.28;10362212;28;20054;-66
2022/01/14 19:51:33;;;;;;;11.82;3.70;;;;;;;7.72;100.00;103207.97;10375370;28;20062;-66
2022/01/14 19:56:55;;;;;;;12.05;6.60;;;;;;;7.59;100.00;103216.81;10376067;28;20056;-67
2022/01/14 20:02:17;;;;;;;8.88;4.40;;;;;;;7.66;100.00;103237.47;10414619;28;20504;-68
2022/01/14 20:07:39;;;;;;;13.50;7.85;;;;;;;7.58;100.00;103225.47;10405135;28;20053;-66
2022/01/14 20:13:03;;;;;;;10.85;4.53;;;;;;;7.64;100.00;103215.00;10393715;28;20049;-67
2022/01/14 20:18:25;;;;;;;8.80;3.67;;;;;;;7.55;100.00;103220.34;10376482;28;20053;-67
2022/01/14 20:23:47;;;;;;;8.77;5.20;;;;;;;7.52;100.00;103207.41;10403727;28;20042;-67
2022/01/14 20:29:09;;;;;;;11.82;5.70;;;;;;;7.43;100.00;103210.09;10391833;28;20077;-67
2022/01/14 20:34:30;;;;;;;10.68;5.53;;;;;;;7.42;100.00;103207.56;10397535;28;20050;-66
2022/01/14 20:39:52;;;;;;;10.73;4.72;;;;;;;7.16;100.00;103200.09;10388382;28;20078;-67
2022/01/14 20:45:15;;;;;;;21.77;9.52;;;;;;;7.33;100.00;103218.91;10388685;28;20045;-66
2022/01/14 20:50:39;;;;;;;6.57;4.88;;;;;;;7.30;100.00;103221.53;10384409;28;20053;-66
2022/01/14 20:56:01;;;;;;;10.45;5.90;;;;;;;7.36;100.00;103218.88;10399758;28;20053;-66
2022/01/14 21:01:23;;;;;;;11.63;6.85;;;;;;;7.41;100.00;103221.41;10379065;28;20053;-66
2022/01/14 21:06:46;;;;;;;11.88;7.05;;;;;;;7.35;100.00;103222.34;10403025;28;20421;-66
2022/01/14 21:12:08;;;;;;;8.75;5.30;;;;;;;7.32;100.00;103219.78;10390432;28;20058;-66
2022/01/14 21:17:36;;;;;;;12.93;5.15;;;;;;;7.44;100.00;103218.78;10406513;28;20048;-66
2022/01/14 21:22:58;;;;;;;12.68;5.38;;;;;;;7.39;100.00;103221.44;10389427;28;20050;-67
2022/01/14 21:28:21;;;;;;;12.88;4.65;;;;;;;7.36;100.00;103213.69;10383934;28;20050;-67
2022/01/14 21:33:42;;;;;;;35.95;18.90;;;;;;;7.38;100.00;103209.34;10364853;28;20057;-67
2022/01/14 21:39:04;;;;;;;9.98;4.70;;;;;;;7.36;100.00;103218.88;10374244;28;20053;-67
2022/01/14 21:44:26;;;;;;;11.73;5.70;;;;;;;7.35;100.00;103203.34;10380318;28;20077;-67
2022/01/14 21:49:49;;;;;;;16.25;6.53;;;;;;;7.29;100.00;103222.41;10368320;28;20481;-67
2022/01/14 21:55:15;;;;;;;14.23;5.22;;;;;;;7.39;100.00;103202.41;10366198;28;20057;-67
2022/01/14 22:00:37;;;;;;;10.95;4.05;;;;;;;7.31;100.00;103212.03;10381082;28;20045;-66
2022/01/14 22:05:59;;;;;;;9.93;3.53;;;;;;;7.21;100.00;103208.69;10367735;28;20061;-67
2022/01/14 22:11:21;;;;;;;12.90;3.30;;;;;;;7.33;100.00;103213.72;10385337;28;20650;-67
2022/01/14 22:16:43;;;;;;;10.10;3.40;;;;;;;7.27;100.00;103203.44;10389597;28;20045;-67
2022/01/14 22:22:07;;;;;;;10.05;3.05;;;;;;;7.16;100.00;103205.28;10404311;28;20081;-69
2022/01/14 22:27:30;;;;;;;10.90;2.92;;;;;;;7.08;100.00;103191.56;10398594;28;20049;-67
2022/01/14 22:32:52;;;;;;;10.27;2.75;;;;;;;7.22;100.00;103184.47;10396254;28;20058;-67
2022/01/14 22:38:15;;;;;;;11.70;2.95;;;;;;;7.10;100.00;103183.75;10403781;28;20049;-67
2022/01/14 22:43:36;;;;;;;12.35;3.17;;;;;;;6.98;100.00;103184.78;10366778;28;20050;-67
2022/01/14 22:48:58;;;;;;;10.27;3.40;;;;;;;7.02;100.00;103191.63;10363882;28;20056;-67
2022/01/14 22:54:20;;;;;;;12.40;4.30;;;;;;;7.05;100.00;103190.75;10385187;28;20053;-66
2022/01/14 22:59:42;;;;;;;12.98;4.10;;;;;;;6.98;100.00;103189.97;10372238;28;20056;-68
2022/01/14 23:05:07;;;;;;;13.60;4.20;;;;;;;7.17;100.00;103185.41;10396501;28;20088;-67
2022/01/14 23:10:29;;;;;;;18.30;4.88;;;;;;;6.93;100.00;103176.22;10384628;28;20520;-67
2022/01/14 23:15:51;;;;;;;9.57;3.78;;;;;;;7.00;100.00;103177.84;10361728;28;20058;-67
2022/01/14 23:21:13;;;;;;;11.25;3.03;;;;;;;7.06;100.00;103166.53;10378667;28;20046;-66
2022/01/14 23:26:35;;;;;;;13.25;3.72;;;;;;;7.01;100.00;103168.34;10374967;28;20406;-67
2022/01/14 23:31:59;;;;;;;16.70;3.25;;;;;;;7.10;100.00;103169.06;10348892;28;20056;-68
2022/01/14 23:37:21;;;;;;;11.38;3.45;;;;;;;6.94;100.00;103180.53;10361349;28;20041;-68
2022/01/14 23:42:48;;;;;;;18.83;3.33;;;;;;;6.91;100.00;103174.53;10394689;28;20064;-66
2022/01/14 23:48:10;;;;;;;20.77;3.45;;;;;;;6.88;100.00;103180.56;10386345;28;20050;-67
2022/01/14 23:53:31;;;;;;;11.20;3.60;;;;;;;6.78;100.00;103176.38;10380955;28;20042;-67
2022/01/14 23:58:53;;;;;;;7.65;3.20;;;;;;;6.78;100.00;103181.56;10399355;28;20384;-65
